Time;durP1;ratioP1;P1;durP2;ratioP2;P2;SDS_P1;SDS_P2;PMS_P1;PMS_P2;Temp;Humidity;BMP_temperature;BMP_pressure;BME280_temperature;BME280_humidity;BME280_pressure;Samples;Min_cycle;Max_cycle;Signal;HPM_P1;HPM_P2
2023/05/21 00:00:09;;;;;;;;;;;;;;;21.71;48.19;100531.87;5364771;32;34915;-68
2023/05/21 00:03:15;;;;;;;;;;;;;;;21.71;48.26;100538.06;5363098;32;35771;-70
2023/05/21 00:06:19;;;;;;;;;;;;;;;20.96;50.37;100538.81;5370781;32;44730;-71
2023/05/21 00:09:22;;;;;;;;;;;;;;;20.81;50.82;100548.91;5346926;32;34942;-70
2023/05/21 00:12:23;;;;;;;;;;;;;;;20.41;51.96;100550.28;5370028;32;34921;-70
2023/05/21 00:15:25;;;;;;;;;;;;;;;20.74;51.13;100554.84;5360328;32;34902;-70
2023/05/21 00:18:27;;;;;;;;;;;;;;;20.22;52.70;100556.19;5375445;32;35541;-67
2023/05/21 00:21:30;;;;;;;;;;;;;;;20.09;52.51;100550.91;5366966;32;35373;-70
2023/05/21 00:24:32;;;;;;;;;;;;;;;19.91;53.70;100552.34;5365269;32;34860;-69
2023/05/21 00:27:34;;;;;;;;;;;;;;;20.23;52.67;100550.75;5372121;32;35645;-68
2023/05/21 00:30:36;;;;;;;;;;;;;;;20.65;51.82;100551.06;5363275;32;35496;-71
2023/05/21 00:33:38;;;;;;;;;;;;;;;20.57;51.51;100552.66;5371925;32;35519;-71
2023/05/21 00:36:44;;;;;;;;;;;;;;;20.44;51.79;100552.72;5339464;32;36339;-70
2023/05/21 00:39:46;;;;;;;;;;;;;;;20.58;51.99;100554.34;5369206;32;46990;-71
2023/05/21 00:42:50;;;;;;;;;;;;;;;21.46;49.25;100552.59;5364023;32;35257;-70
2023/05/21 00:45:52;;;;;;;;;;;;;;;20.64;51.20;100546.69;5349012;32;34716;-68
2023/05/21 00:48:56;;;;;;;;;;;;;;;20.76;51.17;100544.88;5348617;32;34403;-70
2023/05/21 00:52:00;;;;;;;;;;;;;;;20.39;52.03;100542.37;5368131;32;34966;-70
2023/05/21 00:55:02;;;;;;;;;;;;;;;21.24;49.76;100533.91;5371902;32;36057;-70
2023/05/21 00:58:05;;;;;;;;;;;;;;;20.38;51.73;100546.03;5361093;32;35482;-68
2023/05/21 01:01:12;;;;;;;;;;;;;;;20.53;51.23;100541.34;5368630;32;35541;-69
2023/05/21 01:04:15;;;;;;;;;;;;;;;20.32;51.82;100546.50;5366068;32;37002;-69
2023/05/21 01:07:19;;;;;;;;;;;;;;;19.64;54.06;100553.44;5362033;32;44960;-69
2023/05/21 01:10:21;;;;;;;;;;;;;;;20.66;51.52;100543.91;5358391;32;35005;-67
2023/05/21 01:13:23;;;;;;;;;;;;;;;20.67;50.83;100538.44;5361471;32;35022;-69
2023/05/21 01:16:25;;;;;;;;;;;;;;;20.46;51.72;100529.44;5372678;32;35401;-69
2023/05/21 01:19:27;;;;;;;;;;;;;;;20.18;51.84;100533.38;5359926;32;36170;-67
2023/05/21 01:22:31;;;;;;;;;;;;;;;19.34;54.74;100542.34;5372103;32;35288;-69
2023/05/21 01:25:33;;;;;;;;;;;;;;;19.42;54.32;100540.81;5366897;32;36700;-70
2023/05/21 01:28:36;;;;;;;;;;;;;;;19.49;54.40;100535.87;5363028;32;35089;-68
2023/05/21 01:31:44;;;;;;;;;;;;;;;20.04;52.59;100538.94;5370674;32;35139;-68
2023/05/21 01:34:46;;;;;;;;;;;;;;;19.27;55.12;100539.28;5349210;32;47435;-71
2023/05/21 01:37:50;;;;;;;;;;;;;;;19.91;53.16;100547.00;5358134;32;35335;-70
2023/05/21 01:41:02;;;;;;;;;;;;;;;19.61;54.44;100535.00;5361091;32;35599;-70
2023/05/21 01:44:04;;;;;;;;;;;;;;;19.82;53.44;100532.53;5361031;32;35899;-70
2023/05/21 01:47:06;;;;;;;;;;;;;;;20.32;52.13;100530.50;5360544;32;35337;-71
2023/05/21 01:50:11;;;;;;;;;;;;;;;19.24;55.21;100539.47;5352339;32;35102;-70
2023/05/21 01:53:13;;;;;;;;;;;;;;;20.02;53.09;100539.88;5371672;32;34682;-70
2023/05/21 01:56:15;;;;;;;;;;;;;;;20.05;52.89;100533.47;5360467;32;34617;-70
2023/05/21 01:59:17;;;;;;;;;;;;;;;19.68;53.84;100527.38;5357230;32;45068;-70
2023/05/21 02:02:19;;;;;;;;;;;;;;;18.95;56.09;100546.91;5363387;32;34851;-71
2023/05/21 02:05:21;;;;;;;;;;;;;;;18.73;57.08;100538.75;5362074;32;34901;-70
2023/05/21 02:08:24;;;;;;;;;;;;;;;19.39;55.25;100542.84;5371885;32;35628;-67
2023/05/21 02:11:26;;;;;;;;;;;;;;;19.06;55.95;100548.78;5362620;32;35556;-72
2023/05/21 02:14:28;;;;;;;;;;;;;;;19.21;55.60;100529.91;5372414;32;36190;-69
2023/05/21 02:17:32;;;;;;;;;;;;;;;19.12;55.74;100522.56;5362279;32;35014;-69
2023/05/21 02:20:37;;;;;;;;;;;;;;;18.58;57.93;100535.31;5369584;32;34884;-70
2023/05/21 02:23:39;;;;;;;;;;;;;;;19.03;55.95;100527.72;5368625;32;35992;-68
2023/05/21 02:26:41;;;;;;;;;;;;;;;18.36;58.09;100538.63;5350040;32;34516;-70
2023/05/21 02:29:43;;;;;;;;;;;;;;;18.72;57.17;100535.22;5372159;32;34740;-68
2023/05/21 02:32:47;;;;;;;;;;;;;;;18.49;57.82;100533.31;5360406;32;35020;-67
2023/05/21 02:35:49;;;;;;;;;;;;;;;19.01;56.53;100532.31;5350270;32;46321;-70
2023/05/21 02:38:51;;;;;;;;;;;;;;;19.02;56.30;100523.38;5357014;32;35729;-70
2023/05/21 02:41:53;;;;;;;;;;;;;;;19.42;55.72;100521.28;5368288;32;34600;-71
2023/05/21 02:44:55;;;;;;;;;;;;;;;18.38;58.31;100526.91;5350908;32;35400;-69
2023/05/21 02:47:57;;;;;;;;;;;;;;;18.49;58.00;100535.97;5344923;32;35313;-71
2023/05/21 02:50:59;;;;;;;;;;;;;;;19.13;56.25;100528.78;5371272;32;35651;-68
2023/05/21 02:54:01;;;;;;;;;;;;;;;19.39;55.08;100524.19;5361186;32;34402;-67
2023/05/21 02:57:03;;;;;;;;;;;;;;;19.31;55.11;100524.75;5372574;32;34901;-71
2023/05/21 03:00:06;;;;;;;;;;;;;;;19.21;55.65;100529.91;5360877;32;35422;-70
2023/05/21 03:03:08;;;;;;;;;;;;;;;19.30;55.34;100532.84;5366006;32;34984;-69
2023/05/21 03:06:10;;;;;;;;;;;;;;;19.62;54.69;100533.19;5367059;32;35565;-67
2023/05/21 03:09:13;;;;;;;;;;;;;;;19.13;56.07;100531.44;5360924;32;34981;-70
2023/05/21 03:12:14;;;;;;;;;;;;;;;18.49;57.94;100530.66;5371395;32;35332;-69
2023/05/21 03:15:16;;;;;;;;;;;;;;;18.36;58.67;100530.66;5346170;32;44939;-67
2023/05/21 03:18:19;;;;;;;;;;;;;;;18.78;56.69;100531.28;5372427;32;34660;-70
2023/05/21 03:21:23;;;;;;;;;;;;;;;19.07;56.04;100515.91;5360797;32;35337;-70
2023/05/21 03:24:26;;;;;;;;;;;;;;;18.74;56.94;100528.00;5365735;32;35524;-70
2023/05/21 03:27:28;;;;;;;;;;;;;;;18.18;58.73;100522.13;5369747;32;35051;-68
2023/05/21 03:30:30;;;;;;;;;;;;;;;19.24;56.14;100511.97;5362146;32;35214;-70
2023/05/21 03:33:32;;;;;;;;;;;;;;;19.15;55.71;100516.19;5370166;32;34429;-70
2023/05/21 03:36:33;;;;;;;;;;;;;;;19.11;55.59;100517.34;5336643;32;35488;-70
2023/05/21 03:39:35;;;;;;;;;;;;;;;18.29;58.22;100521.38;5367141;32;34437;-70
2023/05/21 03:42:38;;;;;;;;;;;;;;;18.17;59.08;100536.38;5359482;32;34972;-67
2023/05/21 03:45:40;;;;;;;;;;;;;;;19.19;55.89;100530.97;5365702;32;35412;-69
2023/05/21 03:48:45;;;;;;;;;;;;;;;18.53;57.47;100534.78;5345941;32;35634;-69
2023/05/21 03:51:47;;;;;;;;;;;;;;;19.04;55.43;100532.09;5362643;32;47082;-70
2023/05/21 03:54:49;;;;;;;;;;;;;;;19.42;54.33;100529.28;5372684;32;34753;-66
2023/05/21 03:57:51;;;;;;;;;;;;;;;19.09;55.23;100530.78;5348566;32;34829;-68
2023/05/21 04:00:52;;;;;;;;;;;;;;;19.52;54.16;100530.31;5359235;32;34452;-67
2023/05/21 04:03:54;;;;;;;;;;;;;;;18.25;57.70;100542.03;5362838;32;35605;-69
2023/05/21 04:06:57;;;;;;;;;;;;;;;18.17;58.27;100539.03;5365474;32;35115;-70
2023/05/21 04:09:58;;;;;;;;;;;;;;;19.29;54.46;100532.00;5372912;32;34970;-70
2023/05/21 04:13:00;;;;;;;;;;;;;;;19.43;54.19;100537.16;5364928;32;34218;-70
2023/05/21 04:16:02;;;;;;;;;;;;;;;19.38;54.57;100533.97;5370791;32;35532;-68
2023/05/21 04:19:05;;;;;;;;;;;;;;;20.37;51.84;100539.00;5348605;32;34587;-67
2023/05/21 04:22:08;;;;;;;;;;;;;;;19.27;54.57;100544.59;5377496;32;34868;-69
2023/05/21 04:25:10;;;;;;;;;;;;;;;19.22;55.19;100538.75;5364366;32;34437;-69
2023/05/21 04:28:12;;;;;;;;;;;;;;;19.83;53.20;100538.72;5365400;32;34961;-67
2023/05/21 04:31:14;;;;;;;;;;;;;;;19.89;53.04;100538.25;5371190;32;34345;-67
2023/05/21 04:34:16;;;;;;;;;;;;;;;19.86;52.99;100543.84;5358342;32;45071;-69
2023/05/21 04:37:18;;;;;;;;;;;;;;;20.51;51.47;100544.12;5352494;32;35714;-70
2023/05/21 04:40:23;;;;;;;;;;;;;;;19.79;53.15;100540.78;5359400;32;36046;-70
2023/05/21 04:43:25;;;;;;;;;;;;;;;20.03;52.65;100546.09;5373714;32;35274;-67
2023/05/21 04:46:27;;;;;;;;;;;;;;;21.46;49.18;100539.25;5363690;32;35069;-69
2023/05/21 04:49:29;;;;;;;;;;;;;;;21.11;48.75;100536.72;5329058;32;35114;-67
2023/05/21 04:52:33;;;;;;;;;;;;;;;21.14;49.48;100538.31;5372577;32;34969;-68
2023/05/21 04:55:39;;;;;;;;;;;;;;;21.72;47.93;100528.22;5360588;32;35037;-68
2023/05/21 04:58:41;;;;;;;;;;;;;;;22.04;47.17;100529.03;5373864;32;34759;-68
2023/05/21 05:01:43;;;;;;;;;;;;;;;22.39;45.82;100522.50;5362388;32;35926;-68
2023/05/21 05:04:45;;;;;;;;;;;;;;;23.54;43.11;100520.34;5376111;32;34954;-70
2023/05/21 05:07:47;;;;;;;;;;;;;;;23.48;43.79;100517.25;5374134;32;44510;-68
2023/05/21 05:10:49;;;;;;;;;;;;;;;24.39;41.25;100506.19;5360261;32;34640;-69
2023/05/21 05:13:51;;;;;;;;;;;;;;;23.75;41.78;100513.88;5371688;32;34953;-67
2023/05/21 05:16:53;;;;;;;;;;;;;;;24.08;40.74;100511.75;5359669;32;34643;-68
2023/05/21 05:19:55;;;;;;;;;;;;;;;24.88;38.67;100520.31;5373369;32;35376;-68
2023/05/21 05:22:57;;;;;;;;;;;;;;;23.92;40.36;100519.53;5366659;32;36839;-70
2023/05/21 05:25:59;;;;;;;;;;;;;;;24.74;38.54;100514.41;5371184;32;35190;-70
2023/05/21 05:29:01;;;;;;;;;;;;;;;25.35;37.19;100511.13;5366435;32;34623;-69
2023/05/21 05:32:03;;;;;;;;;;;;;;;25.40;36.69;100513.38;5362532;32;36861;-68
2023/05/21 05:35:05;;;;;;;;;;;;;;;24.66;37.72;100516.97;5358676;32;34925;-70
2023/05/21 05:38:07;;;;;;;;;;;;;;;24.18;38.47;100515.25;5350976;32;35303;-69
2023/05/21 05:41:09;;;;;;;;;;;;;;;25.38;36.14;100510.84;5371946;32;35577;-70
2023/05/21 05:44:11;;;;;;;;;;;;;;;25.17;36.74;100512.09;5362847;32;35004;-71
2023/05/21 05:47:13;;;;;;;;;;;;;;;26.02;35.21;100514.31;5344725;32;34691;-67
2023/05/21 05:50:15;;;;;;;;;;;;;;;25.19;36.78;100510.97;5356006;32;45970;-70
2023/05/21 05:53:17;;;;;;;;;;;;;;;26.62;34.34;100508.13;5361333;32;35709;-71
2023/05/21 05:56:20;;;;;;;;;;;;;;;25.27;36.64;100519.13;5370762;32;34820;-70
2023/05/21 05:59:22;;;;;;;;;;;;;;;26.36;34.76;100505.44;5364339;32;34979;-68
2023/05/21 06:02:24;;;;;;;;;;;;;;;26.67;33.84;100503.12;5372501;32;35207;-68
2023/05/21 06:05:26;;;;;;;;;;;;;;;26.78;34.00;100499.28;5362151;32;35292;-68
2023/05/21 06:08:28;;;;;;;;;;;;;;;27.37;33.28;100483.97;5375482;32;34404;-70
2023/05/21 06:11:30;;;;;;;;;;;;;;;28.07;31.82;100489.75;5363364;32;34330;-69
2023/05/21 06:14:32;;;;;;;;;;;;;;;26.24;34.76;100502.16;5361840;32;34371;-70
2023/05/21 06:17:34;;;;;;;;;;;;;;;27.10;33.45;100499.41;5372707;32;35583;-67
2023/05/21 06:20:36;;;;;;;;;;;;;;;26.76;33.52;100501.28;5362124;32;35221;-69
2023/05/21 06:23:38;;;;;;;;;;;;;;;27.49;33.17;100482.62;5377875;32;34634;-67
2023/05/21 06:26:40;;;;;;;;;;;;;;;27.21;33.08;100487.47;5358307;32;35514;-70
2023/05/21 06:29:42;;;;;;;;;;;;;;;27.63;32.14;100487.41;5369083;32;35053;-70
2023/05/21 06:32:47;;;;;;;;;;;;;;;27.19;32.35;100481.41;5364884;32;47401;-67
2023/05/21 06:35:49;;;;;;;;;;;;;;;28.54;30.53;100479.03;5340305;32;35517;-70
2023/05/21 06:38:51;;;;;;;;;;;;;;;28.70;30.53;100461.91;5367204;32;35986;-68
2023/05/21 06:41:53;;;;;;;;;;;;;;;28.07;31.13;100468.97;5361042;32;34854;-69
2023/05/21 06:44:55;;;;;;;;;;;;;;;29.10;29.43;100466.28;5372249;32;35019;-70
2023/05/21 06:47:59;;;;;;;;;;;;;;;27.95;31.67;100462.28;5343240;32;34510;-69
2023/05/21 06:51:01;;;;;;;;;;;;;;;28.11;30.95;100471.34;5364017;32;34857;-68
2023/05/21 06:54:03;;;;;;;;;;;;;;;28.28;30.44;100462.19;5366486;32;36275;-71
2023/05/21 06:57:05;;;;;;;;;;;;;;;27.92;31.40;100469.84;5366998;32;35649;-70
2023/05/21 07:00:08;;;;;;;;;;;;;;;29.00;30.28;100456.72;5372704;32;35332;-69
2023/05/21 07:03:09;;;;;;;;;;;;;;;30.84;27.48;100462.69;5360837;32;35391;-69
2023/05/21 07:06:12;;;;;;;;;;;;;;;28.29;30.87;100455.78;5371215;32;35419;-70
2023/05/21 07:09:14;;;;;;;;;;;;;;;29.67;28.87;100449.66;5365768;32;34645;-69
2023/05/21 07:12:16;;;;;;;;;;;;;;;30.94;27.07;100457.81;5350876;32;44796;-70
2023/05/21 07:15:18;;;;;;;;;;;;;;;29.87;28.59;100444.56;5354274;32;34854;-70
2023/05/21 07:18:20;;;;;;;;;;;;;;;30.87;27.37;100457.75;5360469;32;34255;-68
2023/05/21 07:21:22;;;;;;;;;;;;;;;30.26;28.47;100453.53;5374774;32;34324;-68
2023/05/21 07:24:26;;;;;;;;;;;;;;;30.90;27.31;100441.06;5364236;32;34380;-68
2023/05/21 07:27:28;;;;;;;;;;;;;;;31.60;26.17;100442.22;5372957;32;35411;-69
2023/05/21 07:30:30;;;;;;;;;;;;;;;29.24;29.05;100448.47;5364144;32;36366;-70
2023/05/21 07:33:32;;;;;;;;;;;;;;;30.39;27.56;100432.03;5366831;32;36403;-70
2023/05/21 07:36:34;;;;;;;;;;;;;;;29.74;28.75;100436.22;5346496;32;34853;-67
2023/05/21 07:39:36;;;;;;;;;;;;;;;30.49;28.09;100438.03;5348292;32;35241;-70
2023/05/21 07:42:38;;;;;;;;;;;;;;;31.46;26.52;100445.88;5374320;32;34962;-70
2023/05/21 07:45:40;;;;;;;;;;;;;;;30.71;27.23;100458.78;5359976;32;35402;-71
2023/05/21 07:48:42;;;;;;;;;;;;;;;29.24;29.81;100444.88;5351780;32;35041;-68
2023/05/21 07:51:44;;;;;;;;;;;;;;;30.21;28.70;100440.56;5349434;32;34479;-68
2023/05/21 07:54:46;;;;;;;;;;;;;;;31.35;27.27;100440.94;5365628;32;44960;-68
2023/05/21 07:57:51;;;;;;;;;;;;;;;32.33;25.68;100438.25;5372004;32;34965;-68
2023/05/21 08:00:53;;;;;;;;;;;;;;;30.96;28.10;100450.31;5361887;32;35172;-68
2023/05/21 08:03:55;;;;;;;;;;;;;;;31.34;27.09;100431.13;5360416;32;34435;-70
2023/05/21 08:06:57;;;;;;;;;;;;;;;31.89;26.00;100440.44;5362079;32;34773;-68
2023/05/21 08:09:59;;;;;;;;;;;;;;;30.59;27.99;100444.00;5372250;32;35047;-70
2023/05/21 08:13:03;;;;;;;;;;;;;;;32.43;25.98;100435.16;5373761;32;36092;-70
2023/05/21 08:16:05;;;;;;;;;;;;;;;32.88;24.73;100433.69;5366571;32;36049;-70
2023/05/21 08:19:07;;;;;;;;;;;;;;;33.07;24.75;100434.81;5370272;32;34438;-71
2023/05/21 08:22:09;;;;;;;;;;;;;;;32.23;25.19;100435.00;5367179;32;35206;-69
2023/05/21 08:25:11;;;;;;;;;;;;;;;33.51;24.04;100436.16;5374958;32;34856;-70
2023/05/21 08:28:13;;;;;;;;;;;;;;;32.72;25.09;100439.47;5361711;32;35371;-70
2023/05/21 08:31:19;;;;;;;;;;;;;;;33.38;23.92;100442.41;5368994;32;45886;-70
2023/05/21 08:34:21;;;;;;;;;;;;;;;32.54;25.34;100436.47;5361263;32;34868;-70
2023/05/21 08:37:23;;;;;;;;;;;;;;;32.47;25.76;100430.16;5345170;32;35008;-71
2023/05/21 08:40:25;;;;;;;;;;;;;;;32.55;25.79;100427.25;5370911;32;34847;-70
2023/05/21 08:43:27;;;;;;;;;;;;;;;32.60;25.44;100430.22;5348309;32;34480;-69
2023/05/21 08:46:31;;;;;;;;;;;;;;;32.85;25.14;100441.41;5372943;32;34937;-70
2023/05/21 08:49:33;;;;;;;;;;;;;;;34.66;22.49;100434.78;5343929;32;36728;-71
2023/05/21 08:52:35;;;;;;;;;;;;;;;34.24;23.00;100436.13;5370928;32;35155;-71
2023/05/21 08:55:37;;;;;;;;;;;;;;;32.90;25.09;100435.38;5364128;32;35296;-70
2023/05/21 08:58:42;;;;;;;;;;;;;;;33.18;24.87;100436.09;5361100;32;34897;-68
2023/05/21 09:01:44;;;;;;;;;;;;;;;34.46;23.18;100428.56;5373517;32;34382;-68
2023/05/21 09:04:49;;;;;;;;;;;;;;;32.71;24.91;100436.94;5347794;32;47103;-69
2023/05/21 09:07:59;;;;;;;;;;;;;;;34.34;22.37;100433.81;5372277;32;35006;-71
2023/05/21 09:11:02;;;;;;;;;;;;;;;34.61;22.62;100428.28;5360913;32;34842;-70
2023/05/21 09:14:04;;;;;;;;;;;;;;;33.99;22.61;100426.94;5369702;32;34948;-68
2023/05/21 09:17:06;;;;;;;;;;;;;;;33.89;22.83;100425.47;5365304;32;36118;-71
2023/05/21 09:20:13;;;;;;;;;;;;;;;33.84;23.16;100427.97;5362320;32;35457;-71
2023/05/21 09:23:18;;;;;;;;;;;;;;;34.34;21.69;100417.44;5382002;32;37311;-69
2023/05/21 09:26:20;;;;;;;;;;;;;;;33.87;22.54;100424.81;5362769;32;36565;-71
2023/05/21 09:29:24;;;;;;;;;;;;;;;32.73;23.79;100422.09;5372197;32;34809;-70
2023/05/21 09:32:26;;;;;;;;;;;;;;;33.10;23.25;100423.50;5362668;32;34979;-69
2023/05/21 09:35:28;;;;;;;;;;;;;;;34.35;22.47;100410.91;5347302;32;34915;-70
2023/05/21 09:38:32;;;;;;;;;;;;;;;34.93;21.53;100413.66;5361134;32;34928;-69
2023/05/21 09:41:35;;;;;;;;;;;;;;;35.27;21.46;100409.66;5361578;32;34920;-69
2023/05/21 09:44:37;;;;;;;;;;;;;;;35.81;20.79;100404.62;5372662;32;34123;-68
2023/05/21 09:47:42;;;;;;;;;;;;;;;35.35;21.16;100416.75;5345778;32;35199;-68
2023/05/21 09:50:44;;;;;;;;;;;;;;;34.94;20.91;100422.69;5349555;32;35217;-68
2023/05/21 09:53:48;;;;;;;;;;;;;;;35.14;21.08;100415.22;5363767;32;45529;-68
2023/05/21 09:56:51;;;;;;;;;;;;;;;35.66;20.39;100417.78;5362644;32;34782;-68
2023/05/21 09:59:55;;;;;;;;;;;;;;;35.40;20.73;100406.00;5379006;32;34389;-70
2023/05/21 10:03:00;;;;;;;;;;;;;;;34.50;21.64;100409.84;5361820;32;35106;-71
2023/05/21 10:06:02;;;;;;;;;;;;;;;36.44;19.67;100409.87;5369228;32;35099;-71
2023/05/21 10:09:09;;;;;;;;;;;;;;;35.50;20.48;100403.63;5365605;32;34739;-69
2023/05/21 10:12:11;;;;;;;;;;;;;;;35.99;20.00;100395.63;5354696;32;35177;-70
2023/05/21 10:15:15;;;;;;;;;;;;;;;35.22;20.98;100401.28;5362733;32;35761;-71
2023/05/21 10:18:17;;;;;;;;;;;;;;;36.02;19.50;100393.28;5361746;32;44731;-72
2023/05/21 10:21:21;;;;;;;;;;;;;;;36.03;19.73;100389.50;5375987;32;35139;-69
2023/05/21 10:24:23;;;;;;;;;;;;;;;36.00;20.17;100379.03;5364685;32;34258;-71
2023/05/21 10:27:25;;;;;;;;;;;;;;;35.84;19.82;100376.00;5369238;32;35752;-70
2023/05/21 10:30:27;;;;;;;;;;;;;;;35.08;21.10;100386.03;5361920;32;34843;-71
2023/05/21 10:33:28;;;;;;;;;;;;;;;35.05;21.35;100385.66;5368032;32;34641;-71
2023/05/21 10:36:30;;;;;;;;;;;;;;;36.12;19.88;100376.34;5338616;32;36116;-69
2023/05/21 10:39:32;;;;;;;;;;;;;;;37.48;19.06;100379.56;5359376;32;35422;-68
2023/05/21 10:42:34;;;;;;;;;;;;;;;37.60;18.29;100383.16;5370766;32;34898;-71
2023/05/21 10:46:06;;;;;;;;;;;;;;;37.76;17.58;100376.16;5361479;32;34319;-71
2023/05/21 10:49:08;;;;;;;;;;;;;;;36.97;17.26;100376.37;5326961;32;33982;-69
2023/05/21 10:52:28;;;;;;;;;;;;;;;36.36;18.68;100369.13;5362910;32;35316;-68
2023/05/21 10:55:35;;;;;;;;;;;;;;;36.17;19.52;100373.75;5361126;32;34578;-68
2023/05/21 10:58:47;;;;;;;;;;;;;;;36.75;18.59;100369.69;5370904;32;35564;-72
2023/05/21 11:01:51;;;;;;;;;;;;;;;37.57;17.36;100357.06;5363816;32;44729;-69
2023/05/21 11:04:57;;;;;;;;;;;;;;;38.13;17.34;100360.25;5373421;32;34912;-69
2023/05/21 11:08:00;;;;;;;;;;;;;;;37.03;18.72;100364.44;5361704;32;34468;-69
2023/05/21 11:11:02;;;;;;;;;;;;;;;37.88;18.14;100361.38;5362434;32;34901;-70
2023/05/21 11:14:24;;;;;;;;;;;;;;;37.97;18.08;100359.09;5369118;32;34847;-71
2023/05/21 11:17:37;;;;;;;;;;;;;;;39.64;15.84;100348.84;5357795;32;35320;-70
2023/05/21 11:20:39;;;;;;;;;;;;;;;39.37;15.59;100354.16;5373321;32;34753;-69
2023/05/21 11:23:50;;;;;;;;;;;;;;;38.34;16.62;100354.16;5360556;32;35231;-69
2023/05/21 11:26:57;;;;;;;;;;;;;;;38.53;16.96;100359.47;5363214;32;45354;-71
2023/05/21 11:30:01;;;;;;;;;;;;;;;36.06;19.08;100358.09;5370050;32;35514;-69
2023/05/21 11:33:06;;;;;;;;;;;;;;;38.10;17.45;100358.84;5359809;32;33834;-70
2023/05/21 11:36:10;;;;;;;;;;;;;;;38.85;16.19;100354.34;5346231;32;35901;-69
2023/05/21 11:39:14;;;;;;;;;;;;;;;37.90;17.34;100341.94;5345630;32;34462;-72
2023/05/21 11:42:32;;;;;;;;;;;;;;;36.42;18.91;100349.06;5367637;32;47812;-71
2023/05/21 11:45:34;;;;;;;;;;;;;;;38.06;17.50;100346.66;5365631;32;34844;-71
2023/05/21 11:48:36;;;;;;;;;;;;;;;35.63;20.01;100347.19;5338777;32;34680;-71
2023/05/21 11:51:39;;;;;;;;;;;;;;;35.80;19.79;100346.34;5372030;32;34066;-72
2023/05/21 11:54:42;;;;;;;;;;;;;;;37.34;18.23;100340.59;5359908;32;34389;-72
2023/05/21 11:57:46;;;;;;;;;;;;;;;36.65;18.53;100345.63;5367034;32;35586;-71
2023/05/21 12:00:49;;;;;;;;;;;;;;;36.70;18.94;100342.16;5360432;32;45362;-70
2023/05/21 12:03:51;;;;;;;;;;;;;;;34.63;20.68;100339.66;5359910;32;35109;-70
2023/05/21 12:06:54;;;;;;;;;;;;;;;35.08;19.63;100333.31;5370621;32;35069;-70
2023/05/21 12:09:56;;;;;;;;;;;;;;;34.87;20.42;100332.59;5359908;32;34444;-71
2023/05/21 12:12:58;;;;;;;;;;;;;;;36.00;18.25;100324.31;5372813;32;34934;-72
2023/05/21 12:16:01;;;;;;;;;;;;;;;34.10;20.93;100331.69;5361893;32;35007;-70
2023/05/21 12:19:05;;;;;;;;;;;;;;;33.35;21.91;100319.41;5372395;32;35023;-72
2023/05/21 12:22:07;;;;;;;;;;;;;;;32.55;22.91;100327.44;5369310;32;34910;-69
2023/05/21 12:25:10;;;;;;;;;;;;;;;32.76;23.49;100318.28;5352167;32;35230;-70
2023/05/21 12:28:12;;;;;;;;;;;;;;;32.37;24.18;100323.59;5370711;32;34919;-72
2023/05/21 12:31:15;;;;;;;;;;;;;;;32.23;24.00;100325.41;5361086;32;34601;-71
2023/05/21 12:34:35;;;;;;;;;;;;;;;31.84;24.67;100323.31;5367538;32;48372;-69
2023/05/21 12:37:37;;;;;;;;;;;;;;;30.48;26.44;100317.03;5345032;32;35309;-71
2023/05/21 12:40:40;;;;;;;;;;;;;;;31.02;25.97;100305.72;5366667;32;34944;-69
2023/05/21 12:43:42;;;;;;;;;;;;;;;31.79;24.18;100304.91;5367232;32;34283;-69
2023/05/21 12:46:44;;;;;;;;;;;;;;;31.93;23.49;100311.25;5353964;32;34668;-68
2023/05/21 12:49:49;;;;;;;;;;;;;;;30.72;24.81;100311.28;5357943;32;45112;-72
2023/05/21 12:52:57;;;;;;;;;;;;;;;30.02;26.02;100316.41;5360995;32;35345;-70
2023/05/21 12:56:09;;;;;;;;;;;;;;;30.96;24.50;100296.47;5371380;32;34838;-73
2023/05/21 12:59:12;;;;;;;;;;;;;;;30.24;24.86;100298.37;5351085;32;35409;-68
2023/05/21 13:02:15;;;;;;;;;;;;;;;30.68;25.25;100299.13;5363382;32;35731;-69
2023/05/21 13:05:17;;;;;;;;;;;;;;;30.57;25.54;100288.75;5356513;32;47250;-70
2023/05/21 13:08:19;;;;;;;;;;;;;;;29.37;28.08;100305.25;5366558;32;35662;-69
2023/05/21 13:11:21;;;;;;;;;;;;;;;29.72;27.53;100283.91;5369629;32;34895;-71
2023/05/21 13:14:22;;;;;;;;;;;;;;;29.18;28.03;100292.22;5362583;32;34542;-73
2023/05/21 13:17:26;;;;;;;;;;;;;;;29.64;27.03;100287.56;5371307;32;35765;-72
2023/05/21 13:20:28;;;;;;;;;;;;;;;30.78;25.30;100271.66;5361409;32;35195;-71
2023/05/21 13:23:30;;;;;;;;;;;;;;;31.14;24.55;100274.28;5372447;32;35118;-71
2023/05/21 13:26:32;;;;;;;;;;;;;;;30.73;25.55;100269.56;5355633;32;34889;-69
2023/05/21 13:29:34;;;;;;;;;;;;;;;30.34;26.26;100277.25;5362607;32;34990;-71
2023/05/21 13:32:37;;;;;;;;;;;;;;;30.63;25.36;100262.72;5372311;32;35509;-68
2023/05/21 13:35:39;;;;;;;;;;;;;;;29.93;26.79;100272.31;5343174;32;34923;-70
2023/05/21 13:38:41;;;;;;;;;;;;;;;29.98;26.72;100260.91;5364949;32;35372;-72
2023/05/21 13:41:43;;;;;;;;;;;;;;;29.45;27.48;100258.28;5360361;32;34504;-70
2023/05/21 13:44:46;;;;;;;;;;;;;;;30.54;25.65;100259.31;5369299;32;43099;-70
2023/05/21 13:47:48;;;;;;;;;;;;;;;30.02;26.75;100252.22;5341360;32;35544;-72
2023/05/21 13:50:50;;;;;;;;;;;;;;;30.04;26.00;100260.16;5357378;32;36251;-72
2023/05/21 13:53:52;;;;;;;;;;;;;;;30.43;25.49;100259.81;5365322;32;34390;-73
2023/05/21 13:56:57;;;;;;;;;;;;;;;29.79;26.62;100248.78;5362638;32;36337;-73
2023/05/21 13:59:59;;;;;;;;;;;;;;;30.51;25.95;100239.88;5373236;32;35170;-73
2023/05/21 14:03:03;;;;;;;;;;;;;;;29.77;27.44;100251.69;5364991;32;34993;-69
2023/05/21 14:06:06;;;;;;;;;;;;;;;30.66;24.97;100244.22;5360309;32;35952;-73
2023/05/21 14:09:08;;;;;;;;;;;;;;;30.57;25.00;100244.53;5375680;32;35738;-69
2023/05/21 14:12:10;;;;;;;;;;;;;;;29.08;28.28;100249.16;5330406;32;974872;-72
2023/05/21 14:15:12;;;;;;;;;;;;;;;29.87;26.65;100240.56;5374011;32;34976;-73
2023/05/21 14:18:14;;;;;;;;;;;;;;;29.97;26.13;100251.13;5364909;32;35682;-72
2023/05/21 14:21:16;;;;;;;;;;;;;;;29.58;26.44;100246.84;5372163;32;46974;-70
2023/05/21 14:24:18;;;;;;;;;;;;;;;29.04;27.59;100247.84;5369252;32;34425;-70
2023/05/21 14:27:20;;;;;;;;;;;;;;;29.10;27.05;100241.69;5358911;32;34309;-71
2023/05/21 14:30:22;;;;;;;;;;;;;;;29.72;26.54;100250.56;5370949;32;34414;-71
2023/05/21 14:33:24;;;;;;;;;;;;;;;29.63;26.37;100247.13;5360355;32;34730;-71
2023/05/21 14:36:26;;;;;;;;;;;;;;;29.53;27.13;100228.44;5347143;32;34862;-69
2023/05/21 14:39:28;;;;;;;;;;;;;;;30.06;26.26;100226.41;5360708;32;34529;-72
2023/05/21 14:42:30;;;;;;;;;;;;;;;30.20;25.68;100222.84;5369398;32;35532;-70
2023/05/21 14:45:34;;;;;;;;;;;;;;;29.97;26.10;100229.44;5362535;32;35690;-69
2023/05/21 14:48:36;;;;;;;;;;;;;;;30.05;26.07;100224.75;5340893;32;34693;-69
2023/05/21 14:51:38;;;;;;;;;;;;;;;30.06;26.05;100226.41;5370195;32;34829;-71
2023/05/21 14:54:40;;;;;;;;;;;;;;;29.70;26.53;100220.13;5347440;32;34743;-69
2023/05/21 14:57:42;;;;;;;;;;;;;;;30.04;25.74;100223.06;5370927;32;34478;-72
2023/05/21 15:00:44;;;;;;;;;;;;;;;30.03;25.29;100224.09;5363138;32;36577;-69
2023/05/21 15:03:46;;;;;;;;;;;;;;;30.12;25.00;100225.69;5366616;32;46840;-69
2023/05/21 15:06:49;;;;;;;;;;;;;;;28.53;28.07;100227.78;5362906;32;34884;-71
2023/05/21 15:09:51;;;;;;;;;;;;;;;29.34;27.16;100227.09;5360976;32;34793;-70
2023/05/21 15:12:53;;;;;;;;;;;;;;;28.84;27.79;100222.28;5371269;32;34556;-72
2023/05/21 15:15:55;;;;;;;;;;;;;;;28.88;28.26;100220.91;5346404;32;34932;-69
2023/05/21 15:18:57;;;;;;;;;;;;;;;28.72;28.66;100223.75;5370553;32;35074;-70
2023/05/21 15:21:59;;;;;;;;;;;;;;;28.53;29.34;100217.84;5368120;32;34710;-69
2023/05/21 15:25:01;;;;;;;;;;;;;;;28.45;28.97;100217.03;5368712;32;34740;-68
2023/05/21 15:28:03;;;;;;;;;;;;;;;29.03;27.81;100216.41;5364466;32;34859;-71
2023/05/21 15:31:05;;;;;;;;;;;;;;;30.15;26.36;100209.06;5360757;32;35437;-70
2023/05/21 15:34:07;;;;;;;;;;;;;;;29.59;27.24;100216.84;5369094;32;34556;-68
2023/05/21 15:37:09;;;;;;;;;;;;;;;29.75;27.24;100207.69;5340811;32;34807;-68